Time;durP1;ratioP1;P1;durP2;ratioP2;P2;SDS_P1;SDS_P2;PMS_P1;PMS_P2;Temp;Humidity;BMP_temperature;BMP_pressure;BME280_temperature;BME280_humidity;BME280_pressure;Samples;Min_cycle;Max_cycle;Signal;HPM_P1;HPM_P2
2022/11/14 00:02:14;;;;;;;93.10;65.90;;;;;;;5.71;77.64;101520.61;108582;1273;23566;-79
2022/11/14 00:05:05;;;;;;;110.10;71.80;;;;;;;5.72;77.75;101523.21;108627;1274;21918;-78
2022/11/14 00:07:53;;;;;;;95.40;65.80;;;;;;;5.73;77.89;101523.72;108525;1274;23430;-77
2022/11/14 00:10:44;;;;;;;88.80;64.30;;;;;;;5.72;77.87;101525.45;108651;1274;23027;-78
2022/11/14 00:13:34;;;;;;;88.90;62.60;;;;;;;5.72;78.09;101526.66;108557;1272;23763;-78
2022/11/14 00:16:25;;;;;;;88.50;64.50;;;;;;;5.71;78.05;101530.29;108510;1274;21937;-79
2022/11/14 00:19:13;;;;;;;90.40;64.10;;;;;;;5.70;78.08;101531.15;108594;1274;22180;-78
2022/11/14 00:22:01;;;;;;;86.80;63.30;;;;;;;5.71;78.22;101535.46;108753;1274;21969;-78
2022/11/14 00:24:48;;;;;;;92.20;64.40;;;;;;;5.73;78.31;101534.78;108321;1277;23801;-78
2022/11/14 00:27:36;;;;;;;90.20;63.70;;;;;;;5.76;78.37;101532.20;108256;1265;23148;-78
2022/11/14 00:30:26;;;;;;;92.70;64.40;;;;;;;5.77;78.33;101531.48;107795;1285;23105;-78
2022/11/14 00:33:20;;;;;;;88.80;62.30;;;;;;;5.77;78.41;101526.49;107791;1286;21944;-78
2022/11/14 00:36:08;;;;;;;90.20;61.40;;;;;;;5.78;78.44;101524.08;107829;1286;21944;-78
2022/11/14 00:38:55;;;;;;;92.70;62.40;;;;;;;5.78;78.47;101527.17;107780;1283;22091;-78
2022/11/14 00:41:43;;;;;;;96.90;66.60;;;;;;;5.79;78.58;101527.70;107770;1286;22364;-78
2022/11/14 00:44:30;;;;;;;92.20;64.10;;;;;;;5.81;78.63;101527.02;108095;1283;21971;-79
2022/11/14 00:47:18;;;;;;;90.70;64.10;;;;;;;5.81;78.59;101525.11;107948;1283;23742;-78
2022/11/14 00:50:09;;;;;;;94.50;65.60;;;;;;;5.82;78.74;101521.14;108574;1274;23749;-79
2022/11/14 00:52:57;;;;;;;92.90;61.40;;;;;;;5.85;78.75;101524.08;108656;1273;21926;-79
2022/11/14 00:55:44;;;;;;;89.50;63.60;;;;;;;5.92;78.81;101524.25;108474;1274;21997;-79
2022/11/14 00:58:32;;;;;;;97.00;65.10;;;;;;;5.96;78.83;101519.09;108486;1274;22242;-79
2022/11/14 01:01:25;;;;;;;97.10;64.30;;;;;;;5.98;78.80;101517.02;108556;1274;21930;-79
2022/11/14 01:04:15;;;;;;;92.10;62.00;;;;;;;5.98;78.82;101516.34;108561;1274;21922;-78
2022/11/14 01:07:09;;;;;;;93.00;61.10;;;;;;;5.99;78.88;101514.44;108217;1279;22924;-78
2022/11/14 01:09:57;;;;;;;90.80;61.80;;;;;;;5.99;78.90;101514.27;108191;1280;22140;-76
2022/11/14 01:12:47;;;;;;;91.50;60.50;;;;;;;5.97;78.92;101510.45;108249;1280;21936;-79
2022/11/14 01:15:47;;;;;;;95.20;62.10;;;;;;;5.98;78.89;101501.83;108134;1280;23633;-78
2022/11/14 01:18:36;;;;;;;92.10;61.70;;;;;;;6.00;78.93;101494.39;108096;1280;22015;-78
2022/11/14 01:21:24;;;;;;;85.60;59.80;;;;;;;6.04;79.02;101493.01;108153;1278;22256;-77
2022/11/14 01:24:14;;;;;;;89.90;60.30;;;;;;;6.06;79.09;101489.73;108273;1273;23811;-77
2022/11/14 01:27:02;;;;;;;83.60;58.40;;;;;;;6.06;79.02;101484.89;108595;1274;21932;-78
2022/11/14 01:29:49;;;;;;;90.80;59.80;;;;;;;6.08;79.10;101483.15;108525;1274;22004;-78
2022/11/14 01:32:37;;;;;;;78.80;54.50;;;;;;;6.08;78.96;101478.31;108517;1274;21934;-78
2022/11/14 01:35:25;;;;;;;90.90;57.50;;;;;;;6.07;79.02;101469.50;108594;1274;21955;-79
2022/11/14 01:38:14;;;;;;;84.10;58.40;;;;;;;6.05;79.04;101465.02;108492;1271;22078;-78
2022/11/14 01:41:04;;;;;;;86.10;59.10;;;;;;;6.07;79.19;101467.27;108594;1274;21985;-79
2022/11/14 01:43:52;;;;;;;84.70;58.60;;;;;;;6.08;79.08;101458.62;108545;1272;24398;-79
2022/11/14 01:46:46;;;;;;;97.10;58.90;;;;;;;6.08;79.17;101451.02;108515;1274;21960;-78
2022/11/14 01:49:45;;;;;;;82.00;57.10;;;;;;;6.06;79.28;101449.46;108600;1274;21944;-78
2022/11/14 01:52:38;;;;;;;79.20;54.50;;;;;;;6.03;79.25;101450.15;108614;1274;21937;-77
2022/11/14 01:55:26;;;;;;;84.80;55.70;;;;;;;5.99;79.26;101447.04;108549;1259;23677;-77
2022/11/14 01:58:15;;;;;;;86.20;57.50;;;;;;;5.97;79.34;101444.45;108512;1265;21925;-78
2022/11/14 02:01:04;;;;;;;75.20;50.70;;;;;;;5.99;79.44;101443.41;108538;1274;23874;-76
2022/11/14 02:03:55;;;;;;;85.70;56.40;;;;;;;6.00;79.40;101439.79;108228;1280;23721;-77
2022/11/14 02:06:45;;;;;;;92.40;58.40;;;;;;;6.02;79.43;101435.98;108262;1279;21973;-78
2022/11/14 02:09:40;;;;;;;85.60;56.50;;;;;;;6.04;79.49;101436.84;107744;1289;21949;-79
2022/11/14 02:12:30;;;;;;;84.40;56.60;;;;;;;6.03;79.38;101440.81;107792;1288;24154;-76
2022/11/14 02:15:19;;;;;;;84.30;55.30;;;;;;;6.03;79.48;101438.58;107769;1288;23924;-77
2022/11/14 02:18:06;;;;;;;78.10;55.60;;;;;;;6.05;79.51;101436.15;107784;1288;22723;-78
2022/11/14 02:20:54;;;;;;;84.70;55.50;;;;;;;6.09;79.54;101435.45;107764;1285;22463;-78
2022/11/14 02:23:42;;;;;;;91.70;59.20;;;;;;;6.12;79.51;101435.61;107681;1288;21970;-78
2022/11/14 02:26:33;;;;;;;80.20;53.60;;;;;;;6.14;79.49;101430.77;107903;1280;23613;-78
2022/11/14 02:29:23;;;;;;;82.10;53.90;;;;;;;6.12;79.40;101427.67;108233;1275;22058;-78
2022/11/14 02:32:10;;;;;;;94.10;58.00;;;;;;;6.12;79.38;101427.85;108203;1280;22726;-77
2022/11/14 02:34:58;;;;;;;92.20;58.10;;;;;;;6.14;79.35;101425.94;108180;1274;22764;-77
2022/11/14 02:37:46;;;;;;;80.00;54.30;;;;;;;6.19;79.51;101425.75;108168;1262;23644;-78
2022/11/14 02:40:35;;;;;;;84.30;55.30;;;;;;;6.23;79.44;101424.19;108397;1279;21951;-78
2022/11/14 02:43:23;;;;;;;78.50;53.70;;;;;;;6.20;79.25;101418.66;108575;1274;23586;-78
2022/11/14 02:46:11;;;;;;;86.60;55.80;;;;;;;6.13;79.19;101416.60;108522;1273;22751;-76
2022/11/14 02:48:58;;;;;;;76.90;52.10;;;;;;;6.11;79.27;101414.20;108671;1258;21934;-77
2022/11/14 02:51:46;;;;;;;72.80;52.40;;;;;;;6.08;79.26;101411.79;108581;1274;21953;-78
2022/11/14 02:54:33;;;;;;;73.50;50.40;;;;;;;6.05;79.25;101407.46;108592;1274;21929;-78
2022/11/14 02:57:23;;;;;;;73.40;50.70;;;;;;;6.02;79.29;101410.23;108611;1274;21974;-78
2022/11/14 03:00:12;;;;;;;80.10;50.60;;;;;;;5.98;79.39;101407.99;108590;1272;21980;-79
2022/11/14 03:03:04;;;;;;;75.20;50.20;;;;;;;5.95;79.29;101405.40;108495;1269;22726;-77
2022/11/14 03:06:01;;;;;;;;;;;;;;;5.95;79.46;101402.98;108170;1280;22807;-77
2022/11/14 03:08:48;;;;;;;67.50;46.20;;;;;;;5.91;79.65;101398.83;108249;1280;23211;-78
2022/11/14 03:11:38;;;;;;;71.90;47.10;;;;;;;5.91;79.55;101393.12;108199;1279;22725;-78
2022/11/14 03:14:30;;;;;;;66.70;46.80;;;;;;;5.92;79.49;101388.11;108148;1280;22037;-79
2022/11/14 03:17:17;;;;;;;67.50;46.90;;;;;;;5.89;79.50;101385.35;108179;1280;23132;-79
2022/11/14 03:20:07;;;;;;;65.20;44.50;;;;;;;5.86;79.53;101378.27;108221;1280;22095;-78
2022/11/14 03:22:57;;;;;;;66.60;48.20;;;;;;;5.86;79.54;101376.38;108291;1274;21949;-79
2022/11/14 03:25:45;;;;;;;72.60;50.80;;;;;;;5.87;79.55;101376.02;108522;1274;21959;-78
2022/11/14 03:28:33;;;;;;;71.10;49.40;;;;;;;5.86;79.60;101372.40;108589;1274;22520;-77
2022/11/14 03:31:26;;;;;;;69.60;48.70;;;;;;;5.89;79.54;101366.17;108607;1274;22239;-78
2022/11/14 03:34:14;;;;;;;71.30;49.90;;;;;;;5.90;79.52;101365.83;108525;1274;23611;-78
2022/11/14 03:37:03;;;;;;;64.20;46.00;;;;;;;5.91;79.44;101366.52;108547;1274;21929;-79
2022/11/14 03:39:55;;;;;;;66.80;45.60;;;;;;;5.87;79.49;101364.63;108510;1274;21983;-78
2022/11/14 03:42:42;;;;;;;67.50;46.20;;;;;;;5.84;79.42;101361.35;108491;1272;21936;-79
2022/11/14 03:45:32;;;;;;;63.50;46.00;;;;;;;5.82;79.47;101358.93;108586;1274;21952;-77
2022/11/14 03:48:20;;;;;;;65.40;48.00;;;;;;;5.82;79.51;101359.45;108503;1274;21935;-77
2022/11/14 03:51:07;;;;;;;65.10;45.70;;;;;;;5.81;79.56;101355.48;108392;1280;23754;-78
2022/11/14 03:53:55;;;;;;;62.60;44.80;;;;;;;5.80;79.53;101356.86;108215;1280;23223;-78
2022/11/14 03:56:46;;;;;;;67.50;47.10;;;;;;;5.85;79.70;101354.77;108158;1280;22811;-77
2022/11/14 03:59:34;;;;;;;71.50;48.80;;;;;;;5.87;79.58;101353.23;108153;1280;21967;-79
2022/11/14 04:02:24;;;;;;;68.60;47.50;;;;;;;5.86;79.55;101352.71;108135;1280;21931;-79
2022/11/14 04:05:11;;;;;;;66.50;46.30;;;;;;;5.86;79.49;101350.45;108160;1280;22049;-78
2022/11/14 04:07:59;;;;;;;69.40;48.10;;;;;;;5.88;79.47;101347.52;108153;1280;23042;-78
2022/11/14 04:10:48;;;;;;;63.00;45.80;;;;;;;5.89;79.52;101344.05;108524;1274;23592;-78
2022/11/14 04:13:41;;;;;;;60.70;46.70;;;;;;;5.92;79.55;101342.33;108190;1276;21933;-78
2022/11/14 04:16:30;;;;;;;61.70;43.30;;;;;;;5.94;79.34;101340.61;108183;1277;23096;-78
2022/11/14 04:19:18;;;;;;;57.00;41.60;;;;;;;5.94;79.31;101341.98;108437;1277;23019;-79
2022/11/14 04:22:07;;;;;;;65.20;45.00;;;;;;;5.93;79.26;101343.54;108290;1280;23683;-78
2022/11/14 04:24:54;;;;;;;65.00;43.90;;;;;;;5.93;79.23;101347.17;108491;1280;21931;-79
2022/11/14 04:27:42;;;;;;;63.80;44.80;;;;;;;5.94;79.23;101345.80;108397;1280;21958;-78
2022/11/14 04:30:32;;;;;;;63.30;47.10;;;;;;;5.93;79.19;101340.42;108447;1278;23450;-78
2022/11/14 04:33:24;;;;;;;56.40;42.10;;;;;;;5.90;79.27;101340.78;108587;1264;23049;-78
2022/11/14 04:36:12;;;;;;;61.40;45.00;;;;;;;5.86;79.18;101340.61;108277;1279;21941;-78
2022/11/14 04:39:03;;;;;;;62.80;45.30;;;;;;;5.88;79.20;101340.95;108190;1275;23056;-79
2022/11/14 04:41:52;;;;;;;61.50;44.20;;;;;;;5.88;79.24;101343.73;108363;1280;23021;-78
2022/11/14 04:44:40;;;;;;;64.10;43.10;;;;;;;5.85;79.23;101340.10;108279;1280;24296;-79
2022/11/14 04:47:29;;;;;;;62.20;41.70;;;;;;;5.84;79.20;101333.88;108269;1280;23792;-78
2022/11/14 04:50:19;;;;;;;57.80;41.70;;;;;;;5.85;79.12;101329.91;108442;1280;23675;-78
2022/11/14 04:53:08;;;;;;;58.10;42.10;;;;;;;5.86;79.11;101326.61;108213;1274;24273;-79
2022/11/14 04:55:56;;;;;;;57.20;41.70;;;;;;;5.86;79.13;101326.11;108521;1274;23366;-78
2022/11/14 04:58:44;;;;;;;60.90;44.50;;;;;;;5.83;79.00;101328.88;108667;1274;22797;-77
2022/11/14 05:01:32;;;;;;;63.00;42.70;;;;;;;5.82;79.06;101328.02;108520;1274;22190;-79
2022/11/14 05:04:31;;;;;;;58.30;41.90;;;;;;;5.80;79.12;101325.77;108661;1274;22531;-79
2022/11/14 05:07:22;;;;;;;53.80;38.00;;;;;;;5.79;79.10;101323.35;108606;1274;23063;-78
2022/11/14 05:10:13;;;;;;;57.70;41.00;;;;;;;5.77;78.98;101322.15;108173;1280;22015;-78
2022/11/14 05:13:03;;;;;;;57.40;43.00;;;;;;;5.71;78.99;101316.63;108225;1280;22435;-79
2022/11/14 05:15:51;;;;;;;51.40;40.00;;;;;;;5.66;79.05;101315.26;108162;1280;22878;-79
2022/11/14 05:18:39;;;;;;;56.20;41.60;;;;;;;5.66;79.06;101314.23;108179;1280;21995;-80
2022/11/14 05:21:33;;;;;;;57.40;40.30;;;;;;;5.64;79.00;101312.67;108335;1277;22024;-79
2022/11/14 05:24:27;;;;;;;65.60;47.00;;;;;;;5.58;79.11;101309.58;108221;1280;21946;-79
2022/11/14 05:27:15;;;;;;;56.60;42.20;;;;;;;5.55;79.16;101310.45;107768;1280;23021;-79
2022/11/14 05:30:03;;;;;;;54.80;41.70;;;;;;;5.54;79.18;101313.23;108285;1274;23056;-79
2022/11/14 05:32:51;;;;;;;64.40;43.00;;;;;;;5.53;79.23;101315.13;108221;1280;23683;-79
2022/11/14 05:35:39;;;;;;;65.60;46.20;;;;;;;5.51;79.27;101317.36;108258;1279;21939;-77
2022/11/14 05:38:27;;;;;;;60.80;44.70;;;;;;;5.50;79.40;101323.06;108420;1278;22004;-78
2022/11/14 05:41:21;;;;;;;60.50;42.80;;;;;;;5.48;79.34;101326.18;108231;1280;23572;-77
2022/11/14 05:44:08;;;;;;;62.40;43.30;;;;;;;5.48;79.38;101324.96;108060;1280;23834;-78
2022/11/14 05:46:56;;;;;;;64.90;44.30;;;;;;;5.50;79.31;101331.17;108627;1274;23108;-79
2022/11/14 05:49:44;;;;;;;55.00;38.60;;;;;;;5.53;79.44;101330.30;108502;1274;21926;-76
2022/11/14 05:52:37;;;;;;;60.30;42.40;;;;;;;5.54;79.39;101325.14;108630;1275;21927;-79
2022/11/14 05:55:25;;;;;;;53.70;40.10;;;;;;;5.55;79.34;101324.79;108732;1271;21924;-77
2022/11/14 05:58:16;;;;;;;61.20;42.40;;;;;;;5.53;79.24;101324.61;108682;1275;21924;-78
2022/11/14 06:01:07;;;;;;;56.70;39.10;;;;;;;5.50;79.24;101325.48;108639;1275;21940;-78
2022/11/14 06:03:55;;;;;;;53.30;38.90;;;;;;;5.50;79.27;101326.52;108756;1274;23599;-77
2022/11/14 06:06:43;;;;;;;53.10;37.90;;;;;;;5.49;79.30;101324.27;108623;1273;22717;-79
2022/11/14 06:09:30;;;;;;;51.40;37.00;;;;;;;5.49;79.33;101322.54;108274;1280;22259;-77
2022/11/14 06:12:21;;;;;;;56.20;39.90;;;;;;;5.52;79.31;101323.75;108273;1280;21958;-78
2022/11/14 06:15:09;;;;;;;63.60;47.60;;;;;;;5.55;79.40;101322.38;108266;1280;23757;-76
2022/11/14 06:17:58;;;;;;;58.00;41.60;;;;;;;5.61;79.49;101323.23;108202;1280;21935;-78
2022/11/14 06:21:13;;;;;;;62.20;44.30;;;;;;;5.68;79.38;101325.45;108051;1278;22462;-78
2022/11/14 06:24:03;;;;;;;58.70;42.50;;;;;;;5.78;79.57;101324.05;108069;1286;23613;-80
2022/11/14 06:26:51;;;;;;;67.20;44.60;;;;;;;5.86;79.44;101325.77;107955;1280;21949;-79
2022/11/14 06:29:41;;;;;;;64.90;44.80;;;;;;;5.91;79.32;101327.30;108453;1277;21936;-77
2022/11/14 06:32:37;;;;;;;62.40;46.60;;;;;;;5.91;79.06;101323.50;108360;1278;21932;-79
2022/11/14 06:35:32;;;;;;;60.90;44.80;;;;;;;5.88;78.94;101329.38;108654;1265;23068;-79
2022/11/14 06:38:20;;;;;;;59.50;42.70;;;;;;;5.89;78.89;101331.11;108502;1274;21895;-79
2022/11/14 06:41:16;;;;;;;54.90;41.50;;;;;;;5.91;78.86;101327.98;108239;1280;22000;-78
2022/11/14 06:44:14;;;;;;;50.60;37.50;;;;;;;5.93;78.85;101329.38;108441;1280;23056;-78
2022/11/14 06:47:07;;;;;;;45.90;36.20;;;;;;;5.91;78.53;101328.51;108178;1280;22083;-77
2022/11/14 06:49:57;;;;;;;48.10;35.00;;;;;;;5.83;78.42;101328.52;108123;1280;21944;-78
2022/11/14 06:52:49;;;;;;;;;;;;;;;5.73;78.51;101323.02;108325;1278;23169;-77
2022/11/14 06:55:40;;;;;;;48.50;35.10;;;;;;;5.62;78.75;101320.29;108392;1280;21952;-79
2022/11/14 06:58:35;;;;;;;49.10;37.80;;;;;;;5.63;78.88;101317.52;108296;1274;21968;-77
2022/11/14 07:01:24;;;;;;;49.40;37.10;;;;;;;5.68;78.95;101319.23;108545;1274;21922;-77
2022/11/14 07:04:20;;;;;;;45.40;35.20;;;;;;;5.68;78.90;101317.85;108560;1274;24351;-77
2022/11/14 07:07:11;;;;;;;43.30;34.60;;;;;;;5.68;78.73;101315.27;108623;1274;23679;-78
2022/11/14 07:10:00;;;;;;;46.30;34.60;;;;;;;5.72;78.86;101316.28;108332;1280;21950;-78
2022/11/14 07:12:55;;;;;;;44.30;32.70;;;;;;;5.77;78.88;101315.24;108031;1283;21990;-78
2022/11/14 07:15:54;;;;;;;53.20;39.90;;;;;;;5.80;78.80;101307.80;108071;1283;23608;-78
2022/11/14 07:18:42;;;;;;;44.50;35.40;;;;;;;5.82;78.97;101309.18;108129;1283;22081;-77
2022/11/14 07:21:33;;;;;;;48.00;37.20;;;;;;;5.91;78.97;101309.14;108144;1273;21957;-77
2022/11/14 07:24:21;;;;;;;49.30;39.00;;;;;;;5.98;78.91;101315.04;108344;1283;23022;-76
2022/11/14 07:27:10;;;;;;;53.20;40.60;;;;;;;6.01;78.79;101317.97;108328;1274;21927;-81
2022/11/14 07:29:58;;;;;;;51.00;39.00;;;;;;;6.05;78.75;101320.02;108614;1274;21928;-78
2022/11/14 07:32:46;;;;;;;51.20;39.70;;;;;;;6.08;78.57;101324.52;108695;1273;24366;-78
2022/11/14 07:35:42;;;;;;;51.10;38.50;;;;;;;6.10;78.43;101321.39;108607;1275;23778;-78
2022/11/14 07:38:36;;;;;;;43.00;35.80;;;;;;;6.09;78.38;101315.35;108601;1274;22836;-77
2022/11/14 07:41:27;;;;;;;;;;;;;;;6.12;78.34;101314.98;108645;1274;21927;-78
2022/11/14 07:44:15;;;;;;;44.90;35.10;;;;;;;6.06;78.45;101317.77;108768;1274;21944;-78
2022/11/14 07:47:11;;;;;;;46.60;36.00;;;;;;;6.05;78.40;101311.91;108684;1275;21997;-77
2022/11/14 07:49:59;;;;;;;47.70;36.40;;;;;;;6.09;78.33;101306.19;108813;1274;21944;-77
2022/11/14 07:52:51;;;;;;;47.20;37.10;;;;;;;6.09;78.11;101305.83;108784;1275;21976;-79
2022/11/14 07:55:42;;;;;;;52.80;39.50;;;;;;;6.09;78.18;101298.92;108364;1280;24389;-78
2022/11/14 07:58:35;;;;;;;;;;;;;;;6.17;78.43;101296.13;107964;1283;23062;-78
2022/11/14 08:01:23;;;;;;;46.00;35.00;;;;;;;6.17;78.39;101300.63;108186;1283;23618;-78
2022/11/14 08:04:14;;;;;;;42.90;33.60;;;;;;;6.17;78.23;101301.14;108151;1281;21934;-77
2022/11/14 08:07:08;;;;;;;44.20;34.80;;;;;;;6.18;78.21;101301.83;107726;1285;21944;-79
2022/11/14 08:09:56;;;;;;;44.30;34.70;;;;;;;6.18;78.14;101298.73;107763;1289;22047;-79
2022/11/14 08:12:45;;;;;;;42.80;34.10;;;;;;;6.22;78.20;101292.14;107776;1284;21941;-81
2022/11/14 08:15:39;;;;;;;37.70;32.70;;;;;;;6.30;78.30;101286.38;108245;1281;23026;-80
2022/11/14 08:18:28;;;;;;;38.80;31.90;;;;;;;6.35;77.96;101283.27;108665;1277;21972;-79
2022/11/14 08:21:17;;;;;;;43.30;34.30;;;;;;;6.36;77.80;101281.86;108744;1278;21953;-84
2022/11/14 08:24:06;;;;;;;38.60;32.30;;;;;;;6.38;77.82;101281.68;108762;1274;23669;-82
2022/11/14 08:26:56;;;;;;;39.60;33.40;;;;;;;6.36;77.56;101274.94;108605;1280;21940;-81
2022/11/14 08:29:45;;;;;;;37.90;32.90;;;;;;;6.34;77.53;101273.23;108617;1280;22100;-81
2022/11/14 08:32:36;;;;;;;41.10;34.80;;;;;;;6.40;77.75;101273.88;108776;1279;21916;-81
2022/11/14 08:35:23;;;;;;;43.60;33.70;;;;;;;6.47;77.60;101267.27;108587;1280;21941;-80
2022/11/14 08:38:11;;;;;;;37.40;31.00;;;;;;;6.51;77.43;101266.38;108548;1280;23049;-81
2022/11/14 08:41:03;;;;;;;44.00;35.70;;;;;;;6.53;77.47;101268.62;108581;1280;23071;-82
2022/11/14 08:44:02;;;;;;;41.30;36.60;;;;;;;6.60;77.53;101265.63;108532;1275;21940;-82
2022/11/14 08:46:50;;;;;;;41.00;34.70;;;;;;;6.62;77.18;101262.67;108837;1275;21963;-82
2022/11/14 08:49:38;;;;;;;37.20;32.00;;;;;;;6.61;77.21;101258.54;108835;1275;24276;-82
2022/11/14 08:52:26;;;;;;;40.00;32.10;;;;;;;6.73;77.40;101262.41;108513;1277;22415;-79
2022/11/14 08:55:22;;;;;;;37.20;31.30;;;;;;;6.81;77.38;101265.15;108467;1277;22016;-81
2022/11/14 08:58:10;;;;;;;38.30;32.30;;;;;;;6.84;76.78;101256.98;108679;1277;21939;-80
2022/11/14 09:01:05;;;;;;;35.80;30.40;;;;;;;6.88;76.96;101253.33;108492;1277;23095;-81
2022/11/14 09:03:55;;;;;;;37.90;32.40;;;;;;;6.91;76.76;101249.66;108500;1277;21958;-79
2022/11/14 09:06:46;;;;;;;38.80;31.80;;;;;;;6.98;76.78;101252.37;108588;1278;21935;-77
2022/11/14 09:09:38;;;;;;;38.10;32.20;;;;;;;7.07;76.77;101250.73;108309;1277;21919;-78
2022/11/14 09:12:29;;;;;;;38.60;32.50;;;;;;;7.21;76.95;101248.70;108184;1281;22470;-78
2022/11/14 09:15:29;;;;;;;40.70;31.80;;;;;;;7.40;77.02;101250.59;108470;1280;21952;-81
2022/11/14 09:18:31;;;;;;;40.10;32.20;;;;;;;7.57;76.84;101242.44;107823;1286;23153;-78
2022/11/14 09:21:25;;;;;;;43.50;32.40;;;;;;;7.70;76.34;101245.75;108180;1286;21946;-81
2022/11/14 09:24:16;;;;;;;40.00;32.40;;;;;;;7.73;75.15;101239.49;108147;1286;23812;-79
2022/11/14 09:27:09;;;;;;;34.00;29.60;;;;;;;7.77;75.36;101239.61;108635;1283;21938;-85
2022/11/14 09:30:05;;;;;;;34.30;29.50;;;;;;;7.86;75.24;101232.92;108448;1271;21948;-91
2022/11/14 09:33:03;;;;;;;34.80;27.80;;;;;;;7.94;74.92;101226.58;108732;1280;21937;-80
2022/11/14 09:36:15;;;;;;;32.50;28.00;;;;;;;7.97;74.04;101227.23;108853;1267;23154;-85
2022/11/14 09:39:38;;;;;;;;;;;;;;;;;;;;;
2022/11/14 09:43:00;;;;;;;30.60;27.20;;;;;;;8.03;74.27;101222.82;108946;1274;22271;-81
2022/11/14 09:45:52;;;;;;;33.70;28.60;;;;;;;8.12;74.11;101220.45;108835;1274;23118;-83
2022/11/14 09:48:51;;;;;;;34.00;28.80;;;;;;;8.21;73.93;101219.29;108930;1275;21958;-83
2022/11/14 09:52:49;;;;;;;;;;;;;;;;;;;;;
2022/11/14 09:56:02;;;;;;;;;;;;;;;;;;;;;
2022/11/14 09:59:18;;;;;;;37.70;32.40;;;;;;;8.44;73.43;101204.91;108470;1280;22887;-84
2022/11/14 10:06:36;;;;;;;36.40;32.30;;;;;;;8.78;73.65;101190.67;108950;1280;21957;-84
2022/11/14 10:10:16;;;;;;;33.70;29.40;;;;;;;8.99;73.23;101192.05;108645;1279;22805;-83
2022/11/14 10:14:02;;;;;;;36.20;30.50;;;;;;;9.04;72.45;101185.52;108388;1283;21936;-81
2022/11/14 10:17:52;;;;;;;41.00;31.80;;;;;;;9.09;72.41;101180.23;108887;1283;21914;-86
2022/11/14 10:20:59;;;;;;;35.50;30.20;;;;;;;9.21;72.21;101173.75;108840;1283;21948;-86
2022/11/14 10:24:00;;;;;;;35.50;28.90;;;;;;;9.33;71.87;101170.92;108841;1283;21990;-86
2022/11/14 10:27:21;;;;;;;33.30;29.70;;;;;;;9.41;71.11;101168.70;108758;1283;21914;-86
2022/11/14 10:31:13;;;;;;;33.80;29.60;;;;;;;9.54;71.16;101166.33;108712;1283;21918;-86
2022/11/14 10:34:29;;;;;;;;;;;;;;;;;;;;;
2022/11/14 10:38:20;;;;;;;36.00;32.10;;;;;;;10.04;70.14;101167.67;109012;1280;21946;-87
2022/11/14 10:41:30;;;;;;;36.70;31.50;;;;;;;10.22;69.98;101162.58;108889;1275;21934;-88
2022/11/14 10:45:00;;;;;;;33.90;30.10;;;;;;;10.41;70.15;101159.55;108848;1278;21976;-87
2022/11/14 10:48:26;;;;;;;34.50;30.90;;;;;;;10.46;69.09;101156.48;108935;1281;22021;-87
2022/11/14 10:51:54;;;;;;;33.70;29.90;;;;;;;10.50;68.45;101148.36;108781;1285;21956;-87
2022/11/14 10:55:21;;;;;;;32.40;28.80;;;;;;;10.42;67.43;101139.01;108426;1284;21939;-87
2022/11/14 10:58:37;;;;;;;37.60;32.40;;;;;;;10.30;67.06;101141.02;108580;1283;23040;-84
2022/11/14 11:02:25;;;;;;;36.40;32.20;;;;;;;10.18;67.06;101131.72;108355;1289;23229;-88
2022/11/14 11:05:29;;;;;;;39.10;33.20;;;;;;;10.03;67.25;101125.30;108452;1289;21946;-87
2022/11/14 11:12:21;;;;;;;;;;;;;;;;;;;;;
2022/11/14 11:15:39;;;;;;;38.70;34.00;;;;;;;9.63;67.38;101119.41;109062;1280;23600;-86
2022/11/14 11:18:42;;;;;;;39.40;34.50;;;;;;;9.56;67.76;101121.28;108945;1278;21952;-86
2022/11/14 11:23:08;;;;;;;42.60;34.20;;;;;;;9.55;68.12;101119.56;109256;1274;21901;-88
2022/11/14 11:26:36;;;;;;;39.30;32.90;;;;;;;9.50;68.16;101120.55;108969;1284;22422;-88
2022/11/14 11:29:43;;;;;;;39.10;32.50;;;;;;;9.45;68.20;101121.34;108748;1283;21921;-86
2022/11/14 11:32:41;;;;;;;43.80;35.10;;;;;;;9.45;68.45;101121.34;108674;1281;23611;-86
2022/11/14 11:35:31;;;;;;;43.10;35.20;;;;;;;9.48;68.51;101114.52;108660;1283;22086;-86
2022/11/14 11:38:39;;;;;;;41.10;35.00;;;;;;;9.44;68.12;101113.56;108992;1287;21896;-85
2022/11/14 11:41:39;;;;;;;42.20;34.90;;;;;;;9.32;68.26;101107.88;108601;1283;22085;-86
2022/11/14 11:45:35;;;;;;;40.50;34.20;;;;;;;9.32;68.74;101102.52;108709;1286;21942;-87
2022/11/14 11:48:39;;;;;;;44.60;35.20;;;;;;;9.29;68.81;101103.42;107414;1283;21969;-86
2022/11/14 11:52:02;;;;;;;43.20;35.00;;;;;;;9.27;68.94;101103.30;108764;1283;21991;-87
2022/11/14 11:55:07;;;;;;;43.80;34.60;;;;;;;9.23;68.98;101101.83;108871;1275;21908;-86
2022/11/14 11:59:32;;;;;;;;;;;;;;;;;;;;;
2022/11/14 12:02:51;;;;;;;;;;;;;;;;;;;;;
2022/11/14 12:06:16;;;;;;;42.60;35.20;;;;;;;9.08;69.22;101093.79;109146;1275;21958;-86
2022/11/14 12:09:43;;;;;;;45.30;36.80;;;;;;;9.04;69.38;101092.65;109009;1276;21937;-85
2022/11/14 12:13:25;;;;;;;41.80;35.20;;;;;;;9.06;69.68;101087.05;109033;1275;21978;-86
2022/11/14 12:17:01;;;;;;;47.50;35.70;;;;;;;9.08;69.46;101087.02;109031;1274;22911;-87
2022/11/14 12:20:46;;;;;;;41.20;34.40;;;;;;;8.96;69.37;101085.85;108266;1288;22241;-86
2022/11/14 12:24:25;;;;;;;42.40;37.30;;;;;;;8.89;69.53;101082.52;108279;1283;21971;-85
2022/11/14 12:27:48;;;;;;;;;;;;;;;;;;;;;
2022/11/14 12:30:53;;;;;;;41.10;33.60;;;;;;;8.91;69.75;101078.14;108299;1289;22167;-85
2022/11/14 12:34:15;;;;;;;57.90;48.80;;;;;;;8.91;69.73;101069.28;107972;1289;23691;-85
2022/11/14 12:37:35;;;;;;;46.10;36.80;;;;;;;8.94;69.95;101067.15;107924;1289;21946;-85
2022/11/14 12:40:40;;;;;;;47.70;38.10;;;;;;;8.96;69.88;101063.64;108166;1289;23084;-88
2022/11/14 12:43:41;;;;;;;43.60;34.90;;;;;;;8.96;69.84;101055.31;108175;1289;21957;-84
2022/11/14 12:47:19;;;;;;;;;;;;;;;;;;;;;
2022/11/14 12:50:48;;;;;;;;;;;;;;;;;;;;;
2022/11/14 12:53:49;;;;;;;42.20;36.30;;;;;;;9.01;69.66;101052.61;108209;1289;21943;-86
2022/11/14 12:56:57;;;;;;;45.60;38.30;;;;;;;9.00;69.78;101051.75;108308;1280;22610;-86
2022/11/14 13:00:01;;;;;;;46.20;37.50;;;;;;;9.02;69.92;101048.08;109080;1274;21929;-87
2022/11/14 13:04:07;;;;;;;41.40;35.80;;;;;;;9.04;69.89;101039.70;109103;1274;23093;-87
2022/11/14 13:07:31;;;;;;;;;;;;;;;;;;;;;
2022/11/14 13:11:10;;;;;;;;;;;;;;;;;;;;;
2022/11/14 13:21:55;;;;;;;46.50;39.50;;;;;;;9.09;70.12;101019.28;109067;1289;21959;-89
2022/11/14 13:25:21;;;;;;;;;;;;;;;;;;;;;
2022/11/14 13:29:03;;;;;;;;;;;;;;;;;;;;;
2022/11/14 13:32:50;;;;;;;;;;;;;;;9.17;70.09;101017.55;107833;1292;21947;-82
2022/11/14 13:35:44;;;;;;;39.90;35.10;;;;;;;9.11;70.12;101013.33;108437;1292;22728;-84
2022/11/14 13:39:58;;;;;;;45.40;35.90;;;;;;;9.09;70.02;101017.36;108270;1292;21930;-87
2022/11/14 13:43:37;;;;;;;45.10;35.70;;;;;;;9.08;70.06;101013.90;107935;1292;21954;-86
2022/11/14 13:47:21;;;;;;;;;;;;;;;;;;;;;
2022/11/14 13:50:46;;;;;;;40.50;31.70;;;;;;;9.05;69.86;101012.95;107712;1289;21952;-87
2022/11/14 13:53:44;;;;;;;38.40;32.80;;;;;;;9.01;69.81;101013.03;108293;1289;23617;-87
2022/11/14 13:57:59;;;;;;;41.90;33.20;;;;;;;8.92;69.70;101009.73;108486;1286;21962;-79
2022/11/14 14:01:27;;;;;;;45.20;36.60;;;;;;;8.85;69.79;101006.73;108108;1286;21990;-83
2022/11/14 14:04:56;;;;;;;46.60;37.10;;;;;;;8.81;69.90;101005.27;108589;1283;21947;-84
2022/11/14 14:09:31;;;;;;;39.50;33.40;;;;;;;8.77;69.97;100998.91;108648;1283;23810;-81
2022/11/14 14:13:22;;;;;;;43.80;36.70;;;;;;;8.73;70.08;100989.63;108282;1286;21958;-81
2022/11/14 14:16:56;;;;;;;46.50;39.30;;;;;;;8.69;70.07;100986.59;107673;1292;22912;-81
2022/11/14 14:20:53;;;;;;;42.50;35.00;;;;;;;8.67;70.03;100982.81;107689;1292;22318;-81